Tropical Cyclones
[Index]
Main Index Home Page Stock Weather Photos Extreme Storms Discussion Storm News and Storm Chasing Reports Tropical Cyclones / Hurricanes / Typhoons Weather Data and Links Wild Fires / Bushfires Weather Observation Techniques Weather Picture Catalogue Tornado Pictures and Reports Stock Video Footage and DVDs for sale
Season 2008-2009 Tropical Cyclone GABRIELLE Track Map
Season 2008-2009 Summaries: [BoM-AU] [JTWC-AU] [JTWC-SIO] [JTWC-SPAC] [JTWC-SH]
<<- Previous TC | JTWC 2008-2009 Season | Next TC ->>

click for intensity scale information  Lat/long Grid: Show Hide

 Date Labels: Show Hide

Joint Typhoon Warning Centre Cyclone Data

Name: GABRIELLE

01 Mar 2009 00:00 UTC to 05 Mar 2009 18:00 UTC

    date/time    lat    long     hPa   cat  kts
2009-03-01 00   10.9   101.1    1004         25          
2009-03-01 06   11.3   102.2    1000         30          
2009-03-01 12   12.0   103.5    1000         30          
2009-03-01 18   12.8   104.8    1000         30          
2009-03-02 00   13.5   105.6     996         35          
2009-03-02 06   14.1   106.1     996         35          
2009-03-02 12   14.1   106.7     996         35          
2009-03-02 18   13.7   107.2    1000         30          
2009-03-03 00   13.9   107.7    1000         30          
2009-03-03 06   14.5   107.8    1000         30          
2009-03-03 12   15.1   107.4     996         35          
2009-03-03 18   14.8   106.5     999         35          
2009-03-04 00   15.0   105.6     996         35          
2009-03-04 06   15.6   105.0    1000         30          
2009-03-04 12   15.9   104.3    1004         25          
2009-03-04 18   16.2   102.3    1004         25          
2009-03-05 00   17.4   100.7    1004         25          
2009-03-05 06   18.4    98.9    1004         25          
2009-03-05 12   19.4    97.1    1007         20          
2009-03-05 18   20.4    95.0    1007         20          
Winds are 1-min average.

Tropical cyclone tracks developed by Michael Bath using data from the Joint Typhoon Warning Centre Best Tracks and Google Maps.


[Australian Severe Weather index] [Copyright Notice] [Email Contacts] [Search This Site] [Privacy Policy]
Document: tropical_cyclone_gabrielle.htm Updated: 28 June 2017